WetterOnline ( http://www.wetteronline.de )

Wetter aktuell Marburg

Aktuelles Wetter: Neu-Ulrichstein (350m)

6-stündlich | Neueste Meldungen
Ortszeit Temperatur Wetter
Mi, 25.04. 20:00 12.7° C bewölkt
Mi, 25.04. 14:00 13.0° C bewölkt
Mi, 25.04. 8:00 11.7° C bedeckt
Mi, 25.04. 2:00 11.2° C wolkig
Di, 24.04. 20:00 15.9° C bedeckt
Di, 24.04. 14:00 14.1° C bedeckt
Di, 24.04. 8:00 8.9° C wolkig
Di, 24.04. 2:00 10.1° C wolkig
Ortszeit Temperatur Wetter
Mi, 25.04. 23:30 8.7° C leicht bewölkt
Mi, 25.04. 23:20 8.7° C leicht bewölkt
Mi, 25.04. 23:10 9.0° C fast wolkenlos
Mi, 25.04. 23:00 8.8° C wolkenlos
Mi, 25.04. 22:50 8.8° C wolkenlos
Mi, 25.04. 22:40 9.1° C wolkenlos
Mi, 25.04. 22:30 8.9° C wolkenlos
Mi, 25.04. 22:00 9.6° C fast wolkenlos
Mi, 25.04. 21:30 11.2° C bedeckt
Mi, 25.04. 21:00 12.2° C Sprühregen
Mi, 25.04. 20:30 12.5° C bedeckt
Ortszeit Relative Feuchte Sichtweite
Mi, 25.04. 20:00 58% 70 km
Mi, 25.04. 14:00 74% 23 km
Mi, 25.04. 8:00 76% 13 km
Mi, 25.04. 2:00 72% 50 km
Di, 24.04. 20:00 63% 70 km
Di, 24.04. 14:00 59% 11 km
Di, 24.04. 8:00 83% 10 km
Di, 24.04. 2:00 75% 27 km
Ortszeit Relative Feuchte Sichtweite
Mi, 25.04. 23:30 72% 45 km
Mi, 25.04. 23:20 72% -
Mi, 25.04. 23:10 71% -
Mi, 25.04. 23:00 72% 50 km
Mi, 25.04. 22:50 72% -
Mi, 25.04. 22:40 71% -
Mi, 25.04. 22:30 71% 50 km
Mi, 25.04. 22:00 68% 55 km
Mi, 25.04. 21:30 62% 70 km
Mi, 25.04. 21:00 56% 65 km
Mi, 25.04. 20:30 59% 55 km
Ortszeit Niederschlagsmenge Niederschlagsart
Mi, 25.04. 20:00 0.8 l/m2 in 12 Std. Regen
Mi, 25.04. 14:00 0.8 l/m2 in 6 Std. Regen
Mi, 25.04. 8:00 0.0 l/m2 in 12 Std. -
Mi, 25.04. 2:00 0.0 l/m2 in 6 Std. -
Di, 24.04. 20:00 0.0 l/m2 in 12 Std. -
Di, 24.04. 14:00 0.0 l/m2 in 6 Std. -
Di, 24.04. 8:00 0.0 l/m2 in 12 Std. -
Di, 24.04. 2:00 0.0 l/m2 in 6 Std. -
Ortszeit Niederschlagsmenge Niederschlagsart
Mi, 25.04. 23:30 0.0 l/m2 in 1 Std. -
Mi, 25.04. 23:20 keine Meldung -
Mi, 25.04. 23:10 keine Meldung -
Mi, 25.04. 23:00 0.0 l/m2 in 1 Std. Regen
Mi, 25.04. 22:50 keine Meldung -
Mi, 25.04. 22:40 keine Meldung -
Mi, 25.04. 22:30 0.0 l/m2 in 1 Std. -
Mi, 25.04. 22:00 0.1 l/m2 in 1 Std. Regen
Mi, 25.04. 21:30 0.1 l/m2 in 1 Std. Schneeregen
Mi, 25.04. 21:00 0.1 l/m2 in 1 Std. Regen
Mi, 25.04. 20:30 0.0 l/m2 in 1 Std. -
Ortszeit Stärke Spitze Richtung
km/h Bft. km/h Grad Sektor
Mi, 25.04. 20:00 17 3 46 270° W
Mi, 25.04. 14:00 29 5 47 240° SW
Mi, 25.04. 8:00 17 3 28 210° SW
Mi, 25.04. 2:00 11 2 19 160° S
Di, 24.04. 20:00 9 2 37 210° SW
Di, 24.04. 14:00 24 4 43 210° SW
Di, 24.04. 8:00 18 3 25 190° S
Di, 24.04. 2:00 17 3 28 220° SW
Ortszeit Stärke Spitze Richtung
km/h Bft. km/h Grad Sektor
Mi, 25.04. 23:30 11 2 18 260° W
Mi, 25.04. 23:20 11 2 - 260° W
Mi, 25.04. 23:10 14 3 - 240° SW
Mi, 25.04. 23:00 14 3 18 250° W
Mi, 25.04. 22:50 14 3 - 250° W
Mi, 25.04. 22:40 14 3 - 240° SW
Mi, 25.04. 22:30 13 3 17 230° SW
Mi, 25.04. 22:00 13 3 22 240° SW
Mi, 25.04. 21:30 14 3 22 230° SW
Mi, 25.04. 21:00 22 4 32 250° W
Mi, 25.04. 20:30 19 3 26 260° W
Ortszeit Untergrenze Bedeckung Gattung
total tief tief mittel hoch
Mi, 25.04. 20:00 1800 m 7/8 7/8 - - -
Mi, 25.04. 14:00 1020 m 7/8 7/8 - - -
Mi, 25.04. 8:00 1050 m 8/8 8/8 - - -
Mi, 25.04. 2:00 2400 m 8/8 2/8 - - -
Di, 24.04. 20:00 2700 m 8/8 8/8 - - -
Di, 24.04. 14:00 1020 m 8/8 8/8 - - -
Di, 24.04. 8:00 6000 m 8/8 2/8 - - -
Di, 24.04. 2:00 8700 m 8/8 0/8 - - -
Ortszeit Bedeckungsgrad in Achtel und Wolkenuntergrenze
Mi, 25.04. 23:30 2(2400m) 3(2700m)
Mi, 25.04. 23:20 2(2400m) 3(2700m)
Mi, 25.04. 23:10 1(2100m) 1(2400m)
Mi, 25.04. 23:00 1(2100m)
Mi, 25.04. 22:50 keine Wolken
Mi, 25.04. 22:40 keine Wolken
Mi, 25.04. 22:30 keine Wolken
Mi, 25.04. 22:00 1(2400m)
Mi, 25.04. 21:30 7(1800m) 8(2100m) 9
Mi, 25.04. 21:00 7(1500m)
Mi, 25.04. 20:30 7(1500m) 8(2100m)
Ortszeit Luftdruck NN (hPa) Tendenz (hPa in 3 Std.)
Mi, 25.04. 20:00 1012 + 0,1
Mi, 25.04. 14:00 1011 + 0,8
Mi, 25.04. 8:00 1010 - 0,2
Mi, 25.04. 2:00 1012 - 1,6
Di, 24.04. 20:00 1014 - 1,1
Di, 24.04. 14:00 1017 - 0,5
Di, 24.04. 8:00 1018 - 0,4
Di, 24.04. 2:00 1018 + 0,4
Ortszeit Luftdruck NN (hPa) Tendenz (hPa in 3 Std.)
Mi, 25.04. 23:30 1014 + 1,2
Mi, 25.04. 23:20 1014 keine Meldung
Mi, 25.04. 23:10 1014 keine Meldung
Mi, 25.04. 23:00 1014 + 1,4
Mi, 25.04. 22:50 1014 keine Meldung
Mi, 25.04. 22:40 1014 keine Meldung
Mi, 25.04. 22:30 1013 + 1,2
Mi, 25.04. 22:00 1013 + 1,3
Mi, 25.04. 21:30 1013 + 1,0
Mi, 25.04. 21:00 1013 + 0,9
Mi, 25.04. 20:30 1012 + 0,4
Ortszeit Schneehöhe (cm)
Mi, 25.04. 20:00 0
Mi, 25.04. 14:00 0
Mi, 25.04. 8:00 0
Mi, 25.04. 2:00 0
Di, 24.04. 20:00 0
Di, 24.04. 14:00 0
Di, 24.04. 8:00 0
Di, 24.04. 2:00 0
Ortszeit Schneehöhe (cm)
Mi, 25.04. 23:30 0
Mi, 25.04. 23:20 0
Mi, 25.04. 23:10 0
Mi, 25.04. 23:00 0
Mi, 25.04. 22:50 0
Mi, 25.04. 22:40 0
Mi, 25.04. 22:30 0
Mi, 25.04. 22:00 0
Mi, 25.04. 21:30 0
Mi, 25.04. 21:00 0
Mi, 25.04. 20:30 0
Link zu dieser Seite / Seite empfehlen

Das Wetter in ...